ICN weather

Incheon International Airport
Seoul, Incheon Gwang'yeogsi, South Korea

Public forecast

Using degrees Celsius for public forecast. Weather courtesy of forecast.io.

Current aviation weather report (METAR) for Incheon International Airport

Retrieved 2019/11/13 08:30 UTC (38 seconds ago):

RKSI 130830Z 34018KT 9999 BKN030 OVC090 09/04 Q1014 NOSIG

Aviation forecast (TAF) for Incheon International Airport

Retrieved 2019/11/13 06:00 UTC (3 hours ago):

TAF RKSI 130500Z 1306/1412 32020G35KT 6000 -RA FEW010 BKN025 OVC080 TNM02/1321Z TX05/1405Z TEMPO 1306/1307 29020G35KT 4200 TSRA FEW010CB BKN025 OVC070 BECMG 1309/1310 NSW SCT030 BECMG 1320/1321 33015G25KT BECMG 1402/1403 32010KT BECMG 1407/1408 16005KT